createdAt,value
2018-05-15T00:00:35.938Z,1016.41
2018-05-15T00:01:56.646Z,1016.38
2018-05-15T00:02:57.266Z,1016.38
2018-05-15T00:03:56.818Z,1016.40
2018-05-15T00:04:56.380Z,1016.44
2018-05-15T00:05:57.642Z,1016.42
2018-05-15T00:06:57.684Z,1016.41
2018-05-15T00:07:56.400Z,1016.46
2018-05-15T00:08:57.431Z,1016.45
2018-05-15T00:09:56.928Z,1016.44
2018-05-15T00:10:56.497Z,1016.46
2018-05-15T00:11:57.210Z,1016.49
2018-05-15T00:12:56.904Z,1016.47
2018-05-15T00:13:56.578Z,1016.25
2018-05-15T00:14:57.613Z,1016.47
2018-05-15T00:15:57.466Z,1016.50
2018-05-15T00:16:56.987Z,1016.48
2018-05-15T00:17:56.879Z,1016.46
2018-05-15T00:18:56.402Z,1016.48
2018-05-15T00:19:57.427Z,1016.47
2018-05-15T00:20:57.348Z,1016.49
2018-05-15T00:23:21.420Z,1016.50
2018-05-15T00:24:21.101Z,1016.49
2018-05-15T00:25:21.843Z,1016.47
2018-05-15T00:26:43.106Z,1016.50
2018-05-15T00:27:42.698Z,1016.49
2018-05-15T00:28:42.257Z,1016.49
2018-05-15T00:29:43.784Z,1016.51
2018-05-15T00:31:05.507Z,1016.52
2018-05-15T00:32:06.361Z,1016.48
2018-05-15T00:33:06.388Z,1016.53
2018-05-15T00:34:05.905Z,1016.54
2018-05-15T00:35:05.387Z,1016.55
2018-05-15T00:36:06.268Z,1016.50
2018-05-15T00:37:05.919Z,1016.52
2018-05-15T00:38:05.835Z,1016.48
2018-05-15T00:39:46.496Z,1016.46
2018-05-15T00:40:46.500Z,1016.44
2018-05-15T00:41:47.169Z,1016.42
2018-05-15T00:42:46.867Z,1016.45
2018-05-15T00:43:46.842Z,1016.46
2018-05-15T00:44:46.432Z,1016.43
2018-05-15T00:45:47.091Z,1016.45
2018-05-15T00:46:47.025Z,1016.43
2018-05-15T00:47:46.603Z,1016.41
2018-05-15T00:49:06.739Z,1016.44
2018-05-15T00:50:27.815Z,1016.42
2018-05-15T00:51:28.502Z,1016.48
2018-05-15T00:52:28.242Z,1016.46
2018-05-15T00:53:28.324Z,1016.45
2018-05-15T00:54:28.466Z,1016.53
2018-05-15T00:55:27.903Z,1016.51
2018-05-15T00:56:28.406Z,1016.50
2018-05-15T00:57:28.023Z,1016.52
2018-05-15T00:58:49.180Z,1016.55
2018-05-15T00:59:50.239Z,1016.54
2018-05-15T01:00:49.774Z,1016.57
2018-05-15T01:01:49.528Z,1016.60
2018-05-15T01:02:50.860Z,1016.58
2018-05-15T01:03:49.430Z,1016.59
2018-05-15T01:04:50.343Z,1016.61
2018-05-15T01:05:50.473Z,1016.61
2018-05-15T01:06:50.023Z,1016.58
2018-05-15T01:07:49.785Z,1016.60
2018-05-15T01:08:49.624Z,1016.61
2018-05-15T01:10:09.322Z,1016.63
2018-05-15T01:11:10.011Z,1016.62
2018-05-15T01:12:52.156Z,1016.59
2018-05-15T01:13:50.775Z,1016.55
2018-05-15T01:14:51.342Z,1016.59
2018-05-15T01:15:51.002Z,1016.58
2018-05-15T01:16:51.045Z,1016.55
2018-05-15T01:17:50.718Z,1016.55
2018-05-15T01:19:12.817Z,1016.54
2018-05-15T01:20:12.366Z,1016.54
2018-05-15T01:21:13.007Z,1016.56
2018-05-15T01:22:33.329Z,1016.53
2018-05-15T01:23:33.329Z,1016.56
2018-05-15T01:24:54.435Z,1016.55
2018-05-15T01:25:54.963Z,1016.55
2018-05-15T01:26:55.108Z,1016.57
2018-05-15T01:27:55.169Z,1016.56
2018-05-15T01:28:54.846Z,1016.55
2018-05-15T01:29:54.782Z,1016.57
2018-05-15T01:30:55.740Z,1016.58
2018-05-15T01:31:54.844Z,1016.58
2018-05-15T01:32:54.653Z,1016.58
2018-05-15T01:33:54.978Z,1016.57
2018-05-15T01:34:54.576Z,1016.56
2018-05-15T01:35:54.667Z,1016.56
2018-05-15T01:37:15.681Z,1016.59
2018-05-15T01:38:16.545Z,1016.62
2018-05-15T01:39:16.095Z,1016.60
2018-05-15T01:40:16.075Z,1016.60
2018-05-15T01:41:15.755Z,1016.62
2018-05-15T01:42:16.780Z,1016.65
2018-05-15T01:43:16.922Z,1016.68
2018-05-15T01:44:37.091Z,1016.64
2018-05-15T01:45:37.983Z,1016.67
2018-05-15T01:46:58.409Z,1016.66
2018-05-15T01:48:00.708Z,1016.64
2018-05-15T01:48:59.579Z,1016.66
2018-05-15T01:49:59.547Z,1016.67
2018-05-15T01:51:00.225Z,1016.64
2018-05-15T01:51:58.740Z,1016.68
2018-05-15T01:52:59.368Z,1016.67
2018-05-15T01:53:59.419Z,1016.67
2018-05-15T01:54:59.279Z,1016.65
2018-05-15T01:55:59.338Z,1016.66
2018-05-15T01:57:00.107Z,1016.65
2018-05-15T01:58:20.607Z,1016.65
2018-05-15T01:59:21.130Z,1016.67
2018-05-15T02:00:20.700Z,1016.64
2018-05-15T02:01:20.365Z,1016.64
2018-05-15T02:02:20.967Z,1016.66
2018-05-15T02:03:20.492Z,1016.64
2018-05-15T02:04:21.456Z,1016.61
2018-05-15T02:05:21.526Z,1016.63
2018-05-15T02:06:21.495Z,1016.64
2018-05-15T02:07:20.573Z,1016.65
2018-05-15T02:08:21.055Z,1016.63
2018-05-15T02:09:20.661Z,1016.67
2018-05-15T02:10:20.284Z,1016.65
2018-05-15T02:11:21.203Z,1016.70
2018-05-15T02:12:20.773Z,1016.65
2018-05-15T02:13:41.025Z,1016.72
2018-05-15T02:14:41.992Z,1016.73
2018-05-15T02:15:41.717Z,1016.73
2018-05-15T02:16:41.807Z,1016.73
2018-05-15T02:17:41.571Z,1016.74
2018-05-15T02:18:41.579Z,1016.72
2018-05-15T02:19:42.312Z,1016.71
2018-05-15T02:20:42.190Z,1016.80
2018-05-15T02:21:42.114Z,1016.75
2018-05-15T02:22:41.649Z,1016.77
2018-05-15T02:24:01.496Z,1016.81
2018-05-15T02:25:02.487Z,1016.84
2018-05-15T02:26:02.013Z,1016.79
2018-05-15T02:27:02.097Z,1016.82
2018-05-15T02:28:01.692Z,1016.85
2018-05-15T02:29:03.875Z,1016.83
2018-05-15T02:30:02.518Z,1016.86
2018-05-15T02:31:02.972Z,1016.83
2018-05-15T02:32:21.957Z,1016.84
2018-05-15T02:33:22.946Z,1016.88
2018-05-15T02:34:23.035Z,1016.91
2018-05-15T02:35:22.486Z,1016.88
2018-05-15T02:36:22.261Z,1016.91
2018-05-15T02:37:22.353Z,1016.93
2018-05-15T02:38:22.318Z,1016.93
2018-05-15T02:39:22.884Z,1016.92
2018-05-15T02:40:22.546Z,1016.90
2018-05-15T02:41:22.684Z,1016.95
2018-05-15T02:42:22.641Z,1016.96
2018-05-15T02:43:22.536Z,1016.92
2018-05-15T02:44:22.284Z,1016.92
2018-05-15T02:45:21.996Z,1016.96
2018-05-15T02:46:23.690Z,1016.95
2018-05-15T02:47:22.720Z,1016.96
2018-05-15T02:48:22.304Z,1016.92
2018-05-15T02:49:22.086Z,1016.94
2018-05-15T02:50:22.883Z,1016.91
2018-05-15T02:51:22.496Z,1016.96
2018-05-15T02:52:42.913Z,1016.91
2018-05-15T02:53:43.341Z,1016.90
2018-05-15T02:54:42.995Z,1016.90
2018-05-15T02:55:43.119Z,1016.92
2018-05-15T02:56:43.258Z,1016.90
2018-05-15T02:58:03.978Z,1016.89
2018-05-15T02:59:04.614Z,1016.90
2018-05-15T03:00:24.809Z,1016.90
2018-05-15T03:01:25.906Z,1016.90
2018-05-15T03:02:25.881Z,1016.90
2018-05-15T03:03:25.544Z,1016.90
2018-05-15T03:04:46.522Z,1016.90
2018-05-15T03:05:54.891Z,1016.87
2018-05-15T03:07:07.824Z,1016.85
2018-05-15T03:08:08.798Z,1016.84
2018-05-15T03:09:08.877Z,1016.82
2018-05-15T03:10:07.857Z,1016.84
2018-05-15T03:11:07.792Z,1016.84
2018-05-15T03:12:07.865Z,1016.83
2018-05-15T03:13:07.504Z,1016.88
2018-05-15T03:14:49.624Z,1016.88
2018-05-15T03:15:50.164Z,1016.97
2018-05-15T03:17:10.246Z,1016.97
2018-05-15T03:18:11.422Z,1016.98
2018-05-15T03:19:11.482Z,1016.96
2018-05-15T03:20:11.466Z,1016.96
2018-05-15T03:21:11.089Z,1016.99
2018-05-15T03:22:10.709Z,1016.96
2018-05-15T03:23:10.316Z,1016.99
2018-05-15T03:24:12.048Z,1017.00
2018-05-15T03:25:10.885Z,1016.97
2018-05-15T03:26:11.075Z,1016.93
2018-05-15T03:27:11.138Z,1016.94
2018-05-15T03:28:10.678Z,1016.99
2018-05-15T03:29:10.413Z,1016.96
2018-05-15T03:30:11.425Z,1017.01
2018-05-15T03:31:11.349Z,1017.02
2018-05-15T03:32:31.881Z,1017.03
2018-05-15T03:33:31.926Z,1017.05
2018-05-15T03:34:52.511Z,1017.05
2018-05-15T03:36:14.268Z,1016.99
2018-05-15T03:37:14.860Z,1017.00
2018-05-15T03:38:15.382Z,1017.03
2018-05-15T03:39:15.238Z,1017.03
2018-05-15T03:40:28.060Z,1017.06
2018-05-15T03:41:15.063Z,1017.10
2018-05-15T03:42:35.746Z,1017.14
2018-05-15T03:43:36.702Z,1017.09
2018-05-15T03:44:36.422Z,1017.07
2018-05-15T03:45:36.344Z,1017.07
2018-05-15T03:46:36.024Z,1017.09
2018-05-15T03:47:57.251Z,1017.08
2018-05-15T03:48:58.342Z,1017.07
2018-05-15T03:49:58.395Z,1017.10
2018-05-15T03:50:57.949Z,1017.06
2018-05-15T03:51:58.021Z,1017.09
2018-05-15T03:52:57.615Z,1017.07
2018-05-15T03:53:57.412Z,1017.08
2018-05-15T03:54:58.335Z,1017.08
2018-05-15T03:55:58.028Z,1017.08
2018-05-15T03:56:57.777Z,1017.11
2018-05-15T03:57:57.424Z,1017.09
2018-05-15T03:58:58.548Z,1017.06
2018-05-15T03:59:57.624Z,1017.07
2018-05-15T04:00:57.492Z,1017.09
2018-05-15T04:01:57.738Z,1017.07
2018-05-15T04:02:57.872Z,1017.10
2018-05-15T04:03:57.983Z,1017.11
2018-05-15T04:04:58.018Z,1017.10
2018-05-15T04:05:57.890Z,1017.09
2018-05-15T04:06:58.033Z,1017.08
2018-05-15T04:07:58.175Z,1017.06
2018-05-15T04:08:57.884Z,1017.06
2018-05-15T04:09:57.617Z,1017.08
2018-05-15T04:10:57.823Z,1017.11
2018-05-15T04:11:58.192Z,1017.10
2018-05-15T04:12:58.116Z,1017.12
2018-05-15T04:13:58.292Z,1017.12
2018-05-15T04:14:57.862Z,1017.13
2018-05-15T04:15:57.611Z,1017.15
2018-05-15T04:16:57.699Z,1017.15
2018-05-15T04:17:57.570Z,1017.16
2018-05-15T04:18:57.743Z,1017.13
2018-05-15T04:19:57.728Z,1017.13
2018-05-15T04:20:57.655Z,1017.17
2018-05-15T04:21:57.425Z,1017.14
2018-05-15T04:22:58.202Z,1017.18
2018-05-15T04:23:58.294Z,1017.16
2018-05-15T04:24:58.052Z,1017.17
2018-05-15T04:26:18.045Z,1017.15
2018-05-15T04:27:18.709Z,1017.18
2018-05-15T04:28:39.578Z,1017.17
2018-05-15T04:29:39.549Z,1017.18
2018-05-15T04:31:00.151Z,1017.18
2018-05-15T04:32:01.362Z,1017.16
2018-05-15T04:33:41.659Z,1017.22
2018-05-15T04:35:03.470Z,1017.24
2018-05-15T04:36:03.444Z,1017.25
2018-05-15T04:37:03.671Z,1017.24
2018-05-15T04:38:03.630Z,1017.31
2018-05-15T04:39:03.272Z,1017.29
2018-05-15T04:40:04.051Z,1017.33
2018-05-15T04:41:04.057Z,1017.32
2018-05-15T04:42:03.860Z,1017.34
2018-05-15T04:43:03.451Z,1017.36
2018-05-15T04:44:03.083Z,1017.32
2018-05-15T04:45:03.953Z,1017.33
2018-05-15T04:46:04.137Z,1017.34
2018-05-15T04:47:03.899Z,1017.31
2018-05-15T04:48:03.891Z,1017.31
2018-05-15T04:49:03.484Z,1017.31
2018-05-15T04:50:09.143Z,1017.33
2018-05-15T04:51:07.664Z,1017.32
2018-05-15T04:52:03.461Z,1017.36
2018-05-15T04:53:25.503Z,1017.40
2018-05-15T04:54:26.554Z,1017.30
2018-05-15T04:55:26.714Z,1017.40
2018-05-15T04:56:26.557Z,1017.40
2018-05-15T04:57:26.525Z,1017.40
2018-05-15T04:58:26.639Z,1017.37
2018-05-15T04:59:26.824Z,1017.39
2018-05-15T05:00:46.912Z,1017.34
2018-05-15T05:01:47.684Z,1017.32
2018-05-15T05:02:47.821Z,1017.32
2018-05-15T05:03:46.925Z,1017.36
2018-05-15T05:04:46.634Z,1017.38
2018-05-15T05:05:47.461Z,1017.41
2018-05-15T05:07:08.044Z,1017.39
2018-05-15T05:08:08.869Z,1017.42
2018-05-15T05:09:29.645Z,1017.39
2018-05-15T05:10:29.358Z,1017.41
2018-05-15T05:11:30.119Z,1017.34
2018-05-15T05:12:30.287Z,1017.39
2018-05-15T05:13:30.332Z,1017.41
2018-05-15T05:14:30.477Z,1017.40
2018-05-15T05:16:11.400Z,1017.41
2018-05-15T05:17:11.493Z,1017.41
2018-05-15T05:18:11.599Z,1017.45
2018-05-15T05:19:32.403Z,1017.44
2018-05-15T05:20:32.551Z,1017.49
2018-05-15T05:21:32.268Z,1017.51
2018-05-15T05:22:34.228Z,1017.48
2018-05-15T05:23:32.117Z,1017.54
2018-05-15T05:24:33.386Z,1017.56
2018-05-15T05:25:32.143Z,1017.52
2018-05-15T05:26:33.381Z,1017.51
2018-05-15T05:27:33.045Z,1017.52
2018-05-15T05:28:33.814Z,1017.49
2018-05-15T05:29:33.087Z,1017.45
2018-05-15T05:30:32.793Z,1017.46
2018-05-15T05:31:53.697Z,1017.45
2018-05-15T05:32:54.481Z,1017.42
2018-05-15T05:33:54.874Z,1017.40
2018-05-15T05:35:14.655Z,1017.47
2018-05-15T05:36:15.620Z,1017.48
2018-05-15T05:37:15.863Z,1017.44
2018-05-15T05:38:15.599Z,1017.49
2018-05-15T05:39:15.848Z,1017.46
2018-05-15T05:40:14.691Z,1017.42
2018-05-15T05:41:15.539Z,1017.46
2018-05-15T05:42:15.260Z,1017.39
2018-05-15T05:43:14.920Z,1017.42
2018-05-15T05:44:15.170Z,1017.41
2018-05-15T05:45:14.949Z,1017.42
2018-05-15T05:46:36.092Z,1017.43
2018-05-15T05:47:35.895Z,1017.44
2018-05-15T05:48:57.155Z,1017.43
2018-05-15T05:49:57.170Z,1017.41
2018-05-15T05:50:56.880Z,1017.41
2018-05-15T05:51:57.275Z,1017.41
2018-05-15T05:52:57.238Z,1017.43
2018-05-15T05:54:18.247Z,1017.43
2018-05-15T05:55:17.899Z,1017.46
2018-05-15T05:56:19.037Z,1017.43
2018-05-15T05:57:18.125Z,1017.48
2018-05-15T05:58:18.529Z,1017.49
2018-05-15T05:59:18.364Z,1017.42
2018-05-15T06:00:18.610Z,1017.51
2018-05-15T06:01:19.077Z,1017.50
2018-05-15T06:02:17.866Z,1017.50
2018-05-15T06:03:19.013Z,1017.56
2018-05-15T06:04:18.091Z,1017.54
2018-05-15T06:05:17.831Z,1017.53
2018-05-15T06:06:39.614Z,1017.56
2018-05-15T06:07:40.358Z,1017.58
2018-05-15T06:08:40.564Z,1017.57
2018-05-15T06:09:40.149Z,1017.59
2018-05-15T06:10:40.648Z,1017.56
2018-05-15T06:11:40.230Z,1017.57
2018-05-15T06:12:40.502Z,1017.60
2018-05-15T06:13:40.616Z,1017.62
2018-05-15T06:14:40.961Z,1017.61
2018-05-15T06:15:39.816Z,1017.61
2018-05-15T06:16:40.183Z,1017.64
2018-05-15T06:18:01.123Z,1017.63
2018-05-15T06:19:21.512Z,1017.60
2018-05-15T06:20:22.306Z,1017.59
2018-05-15T06:21:22.104Z,1017.57
2018-05-15T06:22:22.206Z,1017.61
2018-05-15T06:23:22.206Z,1017.58
2018-05-15T06:24:22.028Z,1017.58
2018-05-15T06:25:21.745Z,1017.59
2018-05-15T06:26:22.067Z,1017.60
2018-05-15T06:27:22.244Z,1017.55
2018-05-15T06:28:22.451Z,1017.53
2018-05-15T06:29:22.131Z,1017.53
2018-05-15T06:30:21.838Z,1017.53
2018-05-15T06:31:21.440Z,1017.55
2018-05-15T06:32:22.324Z,1017.55
2018-05-15T06:33:22.379Z,1017.57
2018-05-15T06:34:22.208Z,1017.62
2018-05-15T06:35:21.847Z,1017.64
2018-05-15T06:36:21.607Z,1017.67
2018-05-15T06:37:22.274Z,1017.71
2018-05-15T06:38:22.527Z,1017.69
2018-05-15T06:39:21.876Z,1017.67
2018-05-15T06:41:07.597Z,1017.59
2018-05-15T06:42:07.912Z,1017.62
2018-05-15T06:43:08.049Z,1017.67
2018-05-15T06:44:29.198Z,1017.65
2018-05-15T06:45:30.510Z,1017.62
2018-05-15T06:46:29.650Z,1017.65
2018-05-15T06:47:29.647Z,1017.71
2018-05-15T06:48:30.027Z,1017.77
2018-05-15T06:49:29.297Z,1017.81
2018-05-15T06:50:28.958Z,1017.70
2018-05-15T06:51:29.785Z,1017.72
2018-05-15T06:52:50.417Z,1017.79
2018-05-15T06:53:51.724Z,1017.81
2018-05-15T06:54:50.554Z,1017.80
2018-05-15T06:55:50.470Z,1017.80
2018-05-15T06:56:51.156Z,1017.79
2018-05-15T06:57:50.926Z,1017.79
2018-05-15T06:58:51.224Z,1017.79
2018-05-15T06:59:51.129Z,1017.79
2018-05-15T07:00:51.361Z,1017.79
2018-05-15T07:02:11.771Z,1017.76
2018-05-15T07:03:33.706Z,1017.74
2018-05-15T07:04:34.451Z,1017.78
2018-05-15T07:05:34.325Z,1017.76
2018-05-15T07:06:34.194Z,1017.79
2018-05-15T07:07:55.160Z,1017.80
2018-05-15T07:08:55.607Z,1017.82
2018-05-15T07:09:55.661Z,1017.80
2018-05-15T07:10:55.509Z,1017.80
2018-05-15T07:11:55.787Z,1017.81
2018-05-15T07:12:56.144Z,1017.82
2018-05-15T07:14:35.000Z,1017.87
2018-05-15T07:15:34.931Z,1017.87
2018-05-15T07:16:34.797Z,1017.86
2018-05-15T07:17:34.547Z,1017.86
2018-05-15T07:18:36.030Z,1017.82
2018-05-15T07:19:35.084Z,1017.81
2018-05-15T07:20:34.818Z,1017.84
2018-05-15T07:21:35.044Z,1017.80
2018-05-15T07:22:35.220Z,1017.82
2018-05-15T07:23:35.028Z,1017.84
2018-05-15T07:24:34.763Z,1017.81
2018-05-15T07:25:34.519Z,1017.83
2018-05-15T07:26:35.697Z,1017.76
2018-05-15T07:27:35.645Z,1017.79
2018-05-15T07:29:15.769Z,1017.78
2018-05-15T07:30:36.554Z,1017.81
2018-05-15T07:31:37.018Z,1017.78
2018-05-15T07:32:36.821Z,1017.81
2018-05-15T07:33:58.716Z,1017.77
2018-05-15T07:34:58.442Z,1017.81
2018-05-15T07:35:58.900Z,1017.82
2018-05-15T07:36:58.418Z,1017.82
2018-05-15T07:37:59.124Z,1017.79
2018-05-15T07:38:57.848Z,1017.82
2018-05-15T07:39:58.394Z,1017.78
2018-05-15T07:40:58.144Z,1017.77
2018-05-15T07:41:57.993Z,1017.73
2018-05-15T07:42:59.086Z,1017.71
2018-05-15T07:43:58.260Z,1017.69
2018-05-15T07:44:58.467Z,1017.73
2018-05-15T07:45:58.211Z,1017.69
2018-05-15T07:46:58.986Z,1017.71
2018-05-15T07:47:58.276Z,1017.76
2018-05-15T07:48:58.359Z,1017.71
2018-05-15T07:49:58.642Z,1017.73
2018-05-15T07:50:58.475Z,1017.75
2018-05-15T07:51:58.758Z,1017.76
2018-05-15T07:52:59.323Z,1017.71
2018-05-15T07:53:59.133Z,1017.73
2018-05-15T07:54:58.886Z,1017.74
2018-05-15T07:55:58.678Z,1017.75
2018-05-15T07:56:59.095Z,1017.78
2018-05-15T07:57:58.824Z,1017.73
2018-05-15T07:58:59.616Z,1017.75
2018-05-15T07:59:59.432Z,1017.73
2018-05-15T08:01:19.295Z,1017.73
2018-05-15T08:02:20.027Z,1017.73
2018-05-15T08:03:19.590Z,1017.72
2018-05-15T08:04:19.350Z,1017.75
2018-05-15T08:05:20.451Z,1017.75
2018-05-15T08:06:20.265Z,1017.74
2018-05-15T08:07:20.448Z,1017.75
2018-05-15T08:08:21.643Z,1017.74
2018-05-15T08:09:19.418Z,1017.77
2018-05-15T08:10:20.089Z,1017.73
2018-05-15T08:11:19.726Z,1017.77
2018-05-15T08:12:19.891Z,1017.75
2018-05-15T08:13:19.776Z,1017.76
2018-05-15T08:14:19.541Z,1017.76
2018-05-15T08:15:40.296Z,1017.75
2018-05-15T08:16:41.092Z,1017.79
2018-05-15T08:17:42.215Z,1017.73
2018-05-15T08:18:41.107Z,1017.79
2018-05-15T08:19:40.950Z,1017.80
2018-05-15T08:20:40.654Z,1017.79
2018-05-15T08:21:40.702Z,1017.79
2018-05-15T08:22:40.763Z,1017.76
2018-05-15T08:23:40.572Z,1017.78
2018-05-15T08:24:41.223Z,1017.81
2018-05-15T08:25:41.166Z,1017.80
2018-05-15T08:26:41.327Z,1017.84
2018-05-15T08:27:41.158Z,1017.86
2018-05-15T08:28:41.421Z,1017.89
2018-05-15T08:29:40.349Z,1017.91
2018-05-15T08:30:41.201Z,1017.92
2018-05-15T08:31:41.401Z,1017.93
2018-05-15T08:32:41.206Z,1017.90
2018-05-15T08:33:41.048Z,1017.91
2018-05-15T08:34:40.853Z,1017.92
2018-05-15T08:35:40.921Z,1017.94
2018-05-15T08:36:41.172Z,1017.92
2018-05-15T08:37:41.232Z,1017.95
2018-05-15T08:38:41.398Z,1017.94
2018-05-15T08:40:01.273Z,1017.97
2018-05-15T08:41:25.467Z,1017.93
2018-05-15T08:42:25.804Z,1017.93
2018-05-15T08:43:26.200Z,1017.93
2018-05-15T08:44:26.313Z,1017.94
2018-05-15T08:45:25.758Z,1017.88
2018-05-15T08:46:25.942Z,1017.93
2018-05-15T08:47:46.972Z,1017.95
2018-05-15T08:48:46.667Z,1017.95
2018-05-15T08:49:46.887Z,1017.91
2018-05-15T08:50:46.747Z,1017.94
2018-05-15T08:51:46.967Z,1017.93
2018-05-15T08:52:46.790Z,1017.94
2018-05-15T08:53:47.087Z,1017.92
2018-05-15T08:55:41.057Z,1017.89
2018-05-15T08:56:41.862Z,1017.89
2018-05-15T08:57:41.604Z,1017.90
2018-05-15T08:58:41.459Z,1017.90
2018-05-15T08:59:41.753Z,1017.91
2018-05-15T09:00:41.923Z,1017.89
2018-05-15T09:01:42.022Z,1017.90
2018-05-15T09:02:42.092Z,1017.92
2018-05-15T09:03:41.268Z,1017.93
2018-05-15T09:04:42.069Z,1017.90
2018-05-15T09:05:42.136Z,1017.87
2018-05-15T09:06:40.873Z,1017.88
2018-05-15T09:07:42.160Z,1017.87
2018-05-15T09:08:41.719Z,1017.81
2018-05-15T09:09:41.899Z,1017.82
2018-05-15T09:10:42.045Z,1017.82
2018-05-15T09:12:03.117Z,1017.83
2018-05-15T09:13:02.960Z,1017.84
2018-05-15T09:14:02.984Z,1017.87
2018-05-15T09:15:03.288Z,1017.86
2018-05-15T09:16:04.064Z,1017.87
2018-05-15T09:17:05.213Z,1017.84
2018-05-15T09:18:05.869Z,1017.77
2018-05-15T09:19:05.564Z,1017.78
2018-05-15T09:20:06.024Z,1017.85
2018-05-15T09:21:05.013Z,1017.77
2018-05-15T09:22:04.559Z,1017.76
2018-05-15T09:23:04.778Z,1017.79
2018-05-15T09:24:03.056Z,1017.79
2018-05-15T09:25:24.277Z,1017.77
2018-05-15T09:26:45.657Z,1017.76
2018-05-15T09:27:46.176Z,1017.71
2018-05-15T09:28:45.375Z,1017.75
2018-05-15T09:29:45.513Z,1017.72
2018-05-15T09:30:45.300Z,1017.72
2018-05-15T09:31:45.399Z,1017.73
2018-05-15T09:32:45.686Z,1017.74
2018-05-15T09:33:46.550Z,1017.71
2018-05-15T09:34:47.181Z,1017.70
2018-05-15T09:35:45.489Z,1017.73
2018-05-15T09:36:45.732Z,1017.75
2018-05-15T09:37:45.818Z,1017.72
2018-05-15T09:38:45.196Z,1017.73
2018-05-15T09:39:45.144Z,1017.74
2018-05-15T09:40:44.961Z,1017.71
2018-05-15T09:41:44.810Z,1017.74
2018-05-15T09:42:46.429Z,1017.77
2018-05-15T09:43:45.649Z,1017.75
2018-05-15T09:45:06.368Z,1017.79
2018-05-15T09:46:07.602Z,1017.72
2018-05-15T09:47:06.521Z,1017.73
2018-05-15T09:48:28.681Z,1017.70
2018-05-15T09:49:29.111Z,1017.71
2018-05-15T09:50:49.297Z,1017.73
2018-05-15T09:51:49.287Z,1017.75
2018-05-15T09:52:49.526Z,1017.74
2018-05-15T09:53:49.630Z,1017.73
2018-05-15T09:54:49.604Z,1017.70
2018-05-15T09:55:51.583Z,1017.74
2018-05-15T09:56:50.584Z,1017.70
2018-05-15T09:57:49.609Z,1017.76
2018-05-15T09:59:09.835Z,1017.76
2018-05-15T10:00:10.494Z,1017.73
2018-05-15T10:01:10.641Z,1017.77
2018-05-15T10:02:10.837Z,1017.77
2018-05-15T10:03:10.835Z,1017.74
2018-05-15T10:04:10.690Z,1017.72
2018-05-15T10:05:32.083Z,1017.70
2018-05-15T10:06:32.006Z,1017.69
2018-05-15T10:07:32.043Z,1017.70
2018-05-15T10:08:31.874Z,1017.71
2018-05-15T10:09:32.965Z,1017.70
2018-05-15T10:10:32.265Z,1017.70
2018-05-15T10:11:32.329Z,1017.71
2018-05-15T10:13:14.244Z,1017.67
2018-05-15T10:14:14.033Z,1017.64
2018-05-15T10:15:34.717Z,1017.69
2018-05-15T10:16:35.410Z,1017.73
2018-05-15T10:17:56.405Z,1017.66
2018-05-15T10:18:56.627Z,1017.64
2018-05-15T10:19:56.782Z,1017.58
2018-05-15T10:20:56.737Z,1017.60
2018-05-15T10:21:56.892Z,1017.58
2018-05-15T10:22:56.934Z,1017.61
2018-05-15T10:23:56.558Z,1017.43
2018-05-15T10:24:56.495Z,1017.52
2018-05-15T10:25:56.840Z,1017.53
2018-05-15T10:26:57.205Z,1017.54
2018-05-15T10:27:56.950Z,1017.55
2018-05-15T10:28:57.152Z,1017.53
2018-05-15T10:29:56.948Z,1017.52
2018-05-15T10:30:57.159Z,1017.48
2018-05-15T10:31:56.233Z,1017.50
2018-05-15T10:32:57.350Z,1017.49
2018-05-15T10:33:56.487Z,1017.47
2018-05-15T10:34:56.836Z,1017.45
2018-05-15T10:36:17.229Z,1017.44
2018-05-15T10:37:18.573Z,1017.51
2018-05-15T10:38:17.284Z,1017.51
2018-05-15T10:39:39.013Z,1017.47
2018-05-15T10:40:40.270Z,1017.47
2018-05-15T10:41:39.331Z,1017.47
2018-05-15T10:42:39.485Z,1017.54
2018-05-15T10:43:39.694Z,1017.51
2018-05-15T10:44:39.862Z,1017.42
2018-05-15T10:45:39.645Z,1017.43
2018-05-15T10:46:39.490Z,1017.39
2018-05-15T10:47:39.719Z,1017.40
2018-05-15T10:48:39.862Z,1017.41
2018-05-15T10:50:00.611Z,1017.35
2018-05-15T10:51:01.878Z,1017.41
2018-05-15T10:52:21.404Z,1017.38
2018-05-15T10:53:22.226Z,1017.32
2018-05-15T10:54:22.087Z,1017.31
2018-05-15T10:55:22.105Z,1017.29
2018-05-15T10:56:21.948Z,1017.36
2018-05-15T10:57:21.726Z,1017.28
2018-05-15T10:58:21.883Z,1017.32
2018-05-15T10:59:21.777Z,1017.29
2018-05-15T11:00:23.475Z,1017.27
2018-05-15T11:01:23.053Z,1017.33
2018-05-15T11:02:43.705Z,1017.34
2018-05-15T11:03:44.315Z,1017.31
2018-05-15T11:04:44.748Z,1017.31
2018-05-15T11:06:05.229Z,1017.26
2018-05-15T11:07:05.380Z,1017.30
2018-05-15T11:08:05.552Z,1017.35
2018-05-15T11:09:05.457Z,1017.31
2018-05-15T11:10:26.449Z,1017.34
2018-05-15T11:11:27.504Z,1017.33
2018-05-15T11:12:27.425Z,1017.33
2018-05-15T11:13:27.319Z,1017.30
2018-05-15T11:14:27.563Z,1017.32
2018-05-15T11:15:26.282Z,1017.32
2018-05-15T11:16:27.027Z,1017.30
2018-05-15T11:17:26.750Z,1017.31
2018-05-15T11:18:26.391Z,1017.28
2018-05-15T11:19:27.130Z,1017.29
2018-05-15T11:20:26.961Z,1017.25
2018-05-15T11:21:26.857Z,1017.24
2018-05-15T11:22:28.036Z,1017.24
2018-05-15T11:24:08.114Z,1017.22
2018-05-15T11:25:09.206Z,1017.23
2018-05-15T11:26:09.010Z,1017.26
2018-05-15T11:27:08.729Z,1017.24
2018-05-15T11:28:08.431Z,1017.25
2018-05-15T11:29:08.550Z,1017.21
2018-05-15T11:30:30.809Z,1017.29
2018-05-15T11:31:29.700Z,1017.23
2018-05-15T11:32:29.965Z,1017.25
2018-05-15T11:33:30.146Z,1017.19
2018-05-15T11:34:29.080Z,1017.25
2018-05-15T11:35:30.763Z,1017.23
2018-05-15T11:36:50.112Z,1017.19
2018-05-15T11:37:50.924Z,1017.18
2018-05-15T11:38:51.148Z,1017.16
2018-05-15T11:39:51.305Z,1017.15
2018-05-15T11:40:50.486Z,1017.19
2018-05-15T11:41:50.300Z,1017.20
2018-05-15T11:42:50.101Z,1017.18
2018-05-15T11:43:51.188Z,1017.16
2018-05-15T11:44:51.095Z,1017.14
2018-05-15T11:45:51.163Z,1017.09
2018-05-15T11:46:51.094Z,1017.14
2018-05-15T11:47:51.747Z,1017.13
2018-05-15T11:48:51.639Z,1017.13
2018-05-15T11:49:50.742Z,1017.15
2018-05-15T11:50:52.036Z,1017.16
2018-05-15T11:51:52.585Z,1017.17
2018-05-15T11:52:51.191Z,1017.17
2018-05-15T11:53:51.262Z,1017.10
2018-05-15T11:54:51.771Z,1017.13
2018-05-15T11:55:50.700Z,1017.11
2018-05-15T11:56:50.548Z,1017.10
2018-05-15T11:57:50.863Z,1017.12
2018-05-15T11:58:51.141Z,1017.08
2018-05-15T11:59:51.507Z,1017.06
2018-05-15T12:00:50.670Z,1017.03
2018-05-15T12:01:50.612Z,1017.10
2018-05-15T12:02:50.860Z,1017.06
2018-05-15T12:03:52.522Z,1017.07
2018-05-15T12:04:51.610Z,1017.04
2018-05-15T12:05:50.413Z,1017.02
2018-05-15T12:06:50.800Z,1017.10
2018-05-15T12:07:50.792Z,1017.02
2018-05-15T12:08:51.084Z,1017.06
2018-05-15T12:09:50.792Z,1017.07
2018-05-15T12:11:32.420Z,1017.00
2018-05-15T12:12:33.357Z,1016.97
2018-05-15T12:13:33.726Z,1016.94
2018-05-15T12:14:32.641Z,1016.97
2018-05-15T12:15:32.446Z,1016.99
2018-05-15T12:16:33.463Z,1016.93
2018-05-15T12:17:33.226Z,1017.00
2018-05-15T12:18:33.351Z,1016.98
2018-05-15T12:19:33.210Z,1016.95
2018-05-15T12:20:33.161Z,1016.94
2018-05-15T12:21:33.087Z,1016.95
2018-05-15T12:22:33.313Z,1016.95
2018-05-15T12:23:33.000Z,1016.93
2018-05-15T12:24:32.770Z,1016.88
2018-05-15T12:25:32.835Z,1016.97
2018-05-15T12:26:54.055Z,1016.93
2018-05-15T12:28:35.241Z,1016.93
2018-05-15T12:29:36.227Z,1016.97
2018-05-15T12:30:37.090Z,1016.95
2018-05-15T12:31:36.391Z,1016.89
2018-05-15T12:32:35.295Z,1016.89
2018-05-15T12:33:36.179Z,1016.90
2018-05-15T12:34:36.460Z,1016.91
2018-05-15T12:35:35.690Z,1016.90
2018-05-15T12:36:35.788Z,1016.79
2018-05-15T12:37:35.875Z,1016.76
2018-05-15T12:38:35.966Z,1016.77
2018-05-15T12:39:35.891Z,1016.83
2018-05-15T12:40:57.012Z,1016.84
2018-05-15T12:41:57.101Z,1016.82
2018-05-15T12:42:57.517Z,1016.82
2018-05-15T12:44:18.036Z,1016.76